Time;durP1;ratioP1;P1;durP2;ratioP2;P2;SDS_P1;SDS_P2;PMS_P1;PMS_P2;Temp;Humidity;BMP_temperature;BMP_pressure;BME280_temperature;BME280_humidity;BME280_pressure;Samples;Min_cycle;Max_cycle;Signal;HPM_P1;HPM_P2
2023/07/27 00:00:42;;;;;;;6.57;2.20;;;13.90;99.90;;;;;;5038794;28;20040;-68
2023/07/27 00:03:08;;;;;;;7.07;2.22;;;13.90;99.90;;;;;;5041608;28;20033;-69
2023/07/27 00:05:33;;;;;;;5.07;1.90;;;13.90;99.90;;;;;;5043564;28;20310;-68
2023/07/27 00:07:59;;;;;;;6.82;1.83;;;14.00;99.90;;;;;;5042179;28;20043;-68
2023/07/27 00:10:25;;;;;;;5.25;2.33;;;13.90;99.90;;;;;;5042433;28;20099;-68
2023/07/27 00:12:51;;;;;;;3.78;1.80;;;14.00;99.90;;;;;;5040415;28;20067;-68
2023/07/27 00:15:16;;;;;;;7.32;2.20;;;14.00;99.90;;;;;;5040921;28;20041;-69
2023/07/27 00:17:42;;;;;;;4.57;1.67;;;14.00;99.90;;;;;;5039698;28;20041;-69
2023/07/27 00:20:08;;;;;;;4.18;1.60;;;14.00;99.90;;;;;;5038315;28;20098;-68
2023/07/27 00:22:34;;;;;;;5.30;2.08;;;14.00;99.90;;;;;;5037385;28;20035;-69
2023/07/27 00:24:59;;;;;;;3.75;1.85;;;14.00;99.90;;;;;;5042426;28;20211;-69
2023/07/27 00:27:25;;;;;;;3.50;1.77;;;14.00;99.90;;;;;;5039105;28;20072;-69
2023/07/27 00:29:50;;;;;;;2.65;1.38;;;14.00;99.90;;;;;;5059020;28;20402;-68
2023/07/27 00:32:16;;;;;;;6.28;2.00;;;14.00;99.90;;;;;;5039596;28;20037;-69
2023/07/27 00:34:42;;;;;;;4.65;1.90;;;14.00;99.90;;;;;;5039916;28;20099;-68
2023/07/27 00:37:07;;;;;;;3.75;1.88;;;14.00;99.90;;;;;;5039645;28;20048;-69
2023/07/27 00:39:36;;;;;;;6.85;1.90;;;14.10;99.90;;;;;;5066542;28;20068;-69
2023/07/27 00:42:02;;;;;;;6.97;2.38;;;14.00;99.90;;;;;;5040324;28;20067;-69
2023/07/27 00:44:27;;;;;;;5.78;2.40;;;14.10;99.90;;;;;;5041195;28;20499;-68
2023/07/27 00:46:53;;;;;;;6.35;1.83;;;14.10;99.90;;;;;;5041811;28;20033;-68
2023/07/27 00:49:19;;;;;;;7.38;2.28;;;14.10;99.90;;;;;;5043913;28;20036;-68
2023/07/27 00:51:45;;;;;;;5.30;2.28;;;14.10;99.90;;;;;;5041041;28;20029;-68
2023/07/27 00:54:12;;;;;;;5.93;2.30;;;14.10;99.90;;;;;;5039518;28;20044;-68
2023/07/27 00:56:39;;;;;;;6.45;2.15;;;14.10;99.90;;;;;;5041257;28;20128;-68
2023/07/27 00:59:05;;;;;;;3.35;1.55;;;14.10;99.90;;;;;;5037361;28;20091;-69
2023/07/27 01:01:31;;;;;;;5.45;2.05;;;14.10;99.90;;;;;;5039680;28;20478;-68
2023/07/27 01:03:57;;;;;;;4.25;1.90;;;14.20;99.90;;;;;;5036057;28;20025;-68
2023/07/27 01:06:23;;;;;;;7.55;2.10;;;14.20;99.90;;;;;;5069726;28;20029;-68
2023/07/27 01:08:53;;;;;;;6.88;1.63;;;14.20;99.90;;;;;;5040511;28;20037;-68
2023/07/27 01:11:42;;;;;;;4.70;1.80;;;14.20;99.90;;;;;;5040590;28;20025;-69
2023/07/27 01:14:26;;;;;;;5.00;1.63;;;14.20;99.90;;;;;;5037341;28;20506;-68
2023/07/27 01:16:57;;;;;;;4.03;1.88;;;14.20;99.90;;;;;;5042589;28;20041;-68
2023/07/27 01:19:42;;;;;;;3.95;1.73;;;14.20;99.90;;;;;;5037175;28;20123;-68
2023/07/27 01:22:25;;;;;;;5.90;2.08;;;14.20;99.90;;;;;;5041405;28;20158;-68
2023/07/27 01:25:01;;;;;;;5.30;2.00;;;14.20;99.90;;;;;;5033188;28;20446;-68
2023/07/27 01:27:45;;;;;;;4.47;1.90;;;14.30;99.90;;;;;;5037242;28;20446;-68
2023/07/27 01:30:24;;;;;;;5.38;2.08;;;14.30;99.90;;;;;;5023831;28;20051;-69
2023/07/27 01:32:58;;;;;;;4.75;1.70;;;14.30;99.90;;;;;;5035039;28;20398;-69
2023/07/27 01:35:28;;;;;;;5.65;2.00;;;14.30;99.90;;;;;;5038902;28;20609;-68
2023/07/27 01:37:54;;;;;;;6.88;1.70;;;14.30;99.90;;;;;;5052428;28;20034;-68
2023/07/27 01:40:21;;;;;;;4.25;1.80;;;14.30;99.90;;;;;;5038335;28;20093;-68
2023/07/27 01:42:49;;;;;;;4.35;1.88;;;14.30;99.90;;;;;;5038206;28;20423;-68
2023/07/27 01:45:17;;;;;;;7.32;2.17;;;14.40;99.90;;;;;;5038748;28;20040;-68
2023/07/27 01:47:44;;;;;;;3.72;1.75;;;14.30;99.90;;;;;;5023237;28;20052;-68
2023/07/27 01:50:13;;;;;;;4.72;1.90;;;14.30;99.90;;;;;;5040026;28;20048;-68
2023/07/27 01:52:39;;;;;;;7.22;2.28;;;14.30;99.90;;;;;;5038335;28;20239;-68
2023/07/27 01:55:07;;;;;;;6.38;2.05;;;14.30;99.90;;;;;;5048317;28;20491;-68
2023/07/27 01:57:33;;;;;;;3.85;2.10;;;14.40;99.90;;;;;;5038490;28;20044;-68
2023/07/27 01:59:59;;;;;;;4.25;1.90;;;14.40;99.90;;;;;;5040687;28;20029;-68
2023/07/27 02:02:26;;;;;;;3.60;1.70;;;14.30;99.90;;;;;;5040607;28;20091;-68
2023/07/27 02:04:53;;;;;;;4.13;1.90;;;14.40;99.90;;;;;;5037195;28;20132;-68
2023/07/27 02:07:19;;;;;;;6.22;2.03;;;14.40;99.90;;;;;;5036468;28;20049;-68
2023/07/27 02:09:45;;;;;;;5.45;1.95;;;14.40;99.90;;;;;;5040005;28;20446;-68
2023/07/27 02:12:18;;;;;;;3.33;1.50;;;14.40;99.90;;;;;;5038337;28;20463;-68
2023/07/27 02:15:15;;;;;;;4.85;2.35;;;14.40;99.90;;;;;;5035962;28;20037;-68
2023/07/27 02:17:47;;;;;;;5.93;2.45;;;14.40;99.90;;;;;;5037688;28;20095;-68
2023/07/27 02:20:16;;;;;;;4.63;1.85;;;14.40;99.90;;;;;;5039334;28;20068;-68
2023/07/27 02:22:43;;;;;;;3.63;1.75;;;14.40;99.90;;;;;;5038984;28;20043;-68
2023/07/27 02:25:10;;;;;;;7.05;2.17;;;14.40;99.90;;;;;;5037965;28;20479;-68
2023/07/27 02:27:36;;;;;;;5.00;1.73;;;14.40;99.90;;;;;;5039015;28;20045;-68
2023/07/27 02:30:02;;;;;;;3.95;1.75;;;14.40;99.90;;;;;;5039298;28;20029;-68
2023/07/27 02:32:28;;;;;;;8.88;2.58;;;14.40;99.90;;;;;;5070626;28;20381;-68
2023/07/27 02:34:54;;;;;;;5.80;2.22;;;14.40;99.90;;;;;;5034801;28;20150;-68
2023/07/27 02:37:19;;;;;;;4.47;1.92;;;14.40;99.90;;;;;;5039936;28;20171;-68
2023/07/27 02:39:45;;;;;;;7.10;2.25;;;14.40;99.90;;;;;;5037060;28;20068;-68
2023/07/27 02:42:11;;;;;;;6.20;2.17;;;14.40;99.90;;;;;;5040328;28;20029;-68
2023/07/27 02:44:36;;;;;;;5.47;2.40;;;14.40;99.90;;;;;;5038672;28;20049;-68
2023/07/27 02:47:02;;;;;;;7.32;2.60;;;14.40;99.90;;;;;;5041148;28;20076;-68
2023/07/27 02:49:27;;;;;;;5.50;2.42;;;14.40;99.90;;;;;;5069272;28;20049;-68
2023/07/27 02:51:53;;;;;;;7.13;2.95;;;14.40;99.90;;;;;;5043862;28;20306;-68
2023/07/27 02:54:18;;;;;;;4.93;2.13;;;14.40;99.90;;;;;;5039767;28;20037;-68
2023/07/27 02:56:44;;;;;;;5.80;2.35;;;14.40;99.90;;;;;;5040697;28;20033;-68
2023/07/27 02:59:10;;;;;;;5.50;2.38;;;14.40;99.90;;;;;;5042711;28;20025;-68
2023/07/27 03:01:35;;;;;;;5.35;2.22;;;14.40;99.90;;;;;;5042234;28;20041;-68
2023/07/27 03:04:02;;;;;;;6.10;2.63;;;14.30;99.90;;;;;;5040707;28;20051;-68
2023/07/27 03:06:28;;;;;;;6.55;2.53;;;14.40;99.90;;;;;;5072588;28;20045;-68
2023/07/27 03:08:53;;;;;;;5.22;2.30;;;14.30;99.90;;;;;;5038716;28;20516;-68
2023/07/27 03:11:19;;;;;;;8.43;2.92;;;14.40;99.90;;;;;;5037555;28;20041;-68
2023/07/27 03:13:44;;;;;;;6.30;2.28;;;14.40;99.90;;;;;;5043141;28;20029;-68
2023/07/27 03:16:10;;;;;;;4.38;2.13;;;14.30;99.90;;;;;;5041162;28;20045;-68
2023/07/27 03:18:35;;;;;;;6.07;2.60;;;14.30;99.90;;;;;;5039888;28;20061;-68
2023/07/27 03:21:05;;;;;;;4.65;2.05;;;14.30;99.90;;;;;;5044139;28;20059;-68
2023/07/27 03:23:33;;;;;;;6.32;2.60;;;14.30;99.90;;;;;;5042136;28;20095;-68
2023/07/27 03:25:58;;;;;;;6.30;2.60;;;14.30;99.90;;;;;;5045567;28;20044;-68
2023/07/27 03:28:24;;;;;;;5.07;2.33;;;14.30;99.90;;;;;;5041558;28;20052;-68
2023/07/27 03:30:49;;;;;;;7.68;2.85;;;14.30;99.90;;;;;;5059272;28;20048;-68
2023/07/27 03:33:15;;;;;;;6.22;2.75;;;14.30;99.90;;;;;;5041587;28;20496;-68
2023/07/27 03:35:41;;;;;;;6.57;2.67;;;14.20;99.90;;;;;;5041381;28;20149;-68
2023/07/27 03:38:06;;;;;;;5.93;2.25;;;14.20;99.90;;;;;;5041932;28;20491;-68
2023/07/27 03:40:32;;;;;;;4.97;2.47;;;14.20;99.90;;;;;;5042311;28;20040;-68
2023/07/27 03:42:57;;;;;;;6.93;2.47;;;14.20;99.90;;;;;;5041254;28;20036;-68
2023/07/27 03:45:23;;;;;;;5.10;2.65;;;14.20;99.90;;;;;;5042269;28;20039;-68
2023/07/27 03:47:48;;;;;;;7.57;2.78;;;14.20;99.90;;;;;;5036800;28;20040;-68
2023/07/27 03:50:14;;;;;;;6.20;2.70;;;14.20;99.90;;;;;;5043281;28;20040;-68
2023/07/27 03:52:40;;;;;;;6.65;2.33;;;14.20;99.90;;;;;;5038286;28;20175;-68
2023/07/27 03:55:06;;;;;;;5.05;2.60;;;14.20;99.90;;;;;;5035370;28;20041;-68
2023/07/27 03:57:34;;;;;;;6.28;2.67;;;14.20;99.90;;;;;;5037701;28;20041;-68
2023/07/27 04:00:01;;;;;;;5.35;2.30;;;14.20;99.90;;;;;;5039846;28;20037;-68
2023/07/27 04:02:28;;;;;;;7.00;2.75;;;14.20;99.90;;;;;;5036819;28;20033;-68
2023/07/27 04:04:53;;;;;;;7.38;2.97;;;14.20;99.90;;;;;;5041157;28;20036;-68
2023/07/27 04:07:19;;;;;;;6.72;2.78;;;14.20;99.90;;;;;;5053024;28;20045;-68
2023/07/27 04:09:45;;;;;;;6.20;2.55;;;14.20;99.90;;;;;;5039561;28;20482;-68
2023/07/27 04:12:11;;;;;;;4.57;2.42;;;14.20;99.90;;;;;;5039792;28;20036;-68
2023/07/27 04:14:37;;;;;;;7.97;2.58;;;14.20;99.90;;;;;;5038159;28;20036;-68
2023/07/27 04:17:03;;;;;;;5.85;2.25;;;14.20;99.90;;;;;;5039418;28;20127;-68
2023/07/27 04:19:29;;;;;;;7.75;2.33;;;14.20;99.90;;;;;;5038899;28;20041;-68
2023/07/27 04:21:54;;;;;;;7.13;2.53;;;14.20;99.90;;;;;;5040568;28;20044;-69
2023/07/27 04:24:20;;;;;;;6.38;2.40;;;14.10;99.90;;;;;;5071377;28;20063;-68
2023/07/27 04:26:46;;;;;;;5.30;2.22;;;14.10;99.90;;;;;;5040430;28;20667;-68
2023/07/27 04:29:12;;;;;;;5.78;2.15;;;14.10;99.90;;;;;;5030322;28;20083;-68
2023/07/27 04:31:37;;;;;;;4.75;2.20;;;14.10;99.90;;;;;;5069886;28;20583;-68
2023/07/27 04:34:03;;;;;;;6.40;2.63;;;14.10;99.90;;;;;;5036578;28;20048;-68
2023/07/27 04:36:28;;;;;;;7.68;3.05;;;14.10;99.90;;;;;;5036129;28;20037;-68
2023/07/27 04:38:54;;;;;;;5.97;2.67;;;14.20;99.90;;;;;;5069021;28;20029;-68
2023/07/27 04:41:20;;;;;;;5.07;2.42;;;14.20;99.90;;;;;;5071081;28;20742;-68
2023/07/27 04:43:45;;;;;;;4.47;1.77;;;14.10;99.90;;;;;;5037326;28;20407;-68
2023/07/27 04:46:11;;;;;;;5.40;2.22;;;14.20;99.90;;;;;;5040373;28;20037;-68
2023/07/27 04:48:36;;;;;;;5.40;2.67;;;14.20;99.90;;;;;;5037860;28;20047;-68
2023/07/27 04:51:02;;;;;;;8.88;2.90;;;14.20;99.90;;;;;;5040527;28;20124;-69
2023/07/27 04:53:27;;;;;;;5.13;2.35;;;14.20;99.90;;;;;;5036738;28;20049;-68
2023/07/27 04:55:53;;;;;;;5.75;2.25;;;14.20;99.90;;;;;;5036957;28;20130;-68
2023/07/27 04:58:19;;;;;;;6.85;2.75;;;14.20;99.90;;;;;;5071138;28;20038;-68
2023/07/27 05:00:44;;;;;;;6.53;2.40;;;14.20;99.90;;;;;;5036508;28;20519;-68
2023/07/27 05:03:10;;;;;;;6.63;2.38;;;14.20;99.90;;;;;;5036626;28;20030;-68
2023/07/27 05:05:44;;;;;;;7.13;2.35;;;14.20;99.90;;;;;;5038426;28;20597;-68
2023/07/27 05:08:10;;;;;;;5.47;2.28;;;14.20;99.90;;;;;;5035413;28;20052;-68
2023/07/27 05:10:38;;;;;;;5.68;2.72;;;14.20;99.90;;;;;;5038063;28;20331;-68
2023/07/27 05:13:04;;;;;;;6.55;2.55;;;14.20;99.90;;;;;;5035532;28;20480;-68
2023/07/27 05:15:29;;;;;;;6.85;2.60;;;14.20;99.90;;;;;;5038592;28;20041;-68
2023/07/27 05:17:55;;;;;;;8.35;2.67;;;14.20;99.90;;;;;;5037692;28;20415;-68
2023/07/27 05:20:21;;;;;;;5.10;2.63;;;14.30;99.90;;;;;;5038752;28;20041;-68
2023/07/27 05:22:46;;;;;;;6.80;2.58;;;14.30;99.90;;;;;;5037203;28;20040;-68
2023/07/27 05:25:13;;;;;;;4.15;2.05;;;14.30;99.90;;;;;;5035447;28;20499;-68
2023/07/27 05:27:39;;;;;;;6.93;2.45;;;14.30;99.90;;;;;;5038418;28;20618;-68
2023/07/27 05:30:05;;;;;;;5.53;2.70;;;14.30;99.90;;;;;;5037118;28;20359;-68
2023/07/27 05:32:31;;;;;;;5.97;2.60;;;14.30;99.90;;;;;;5042469;28;20562;-68
2023/07/27 05:34:56;;;;;;;4.95;2.30;;;14.40;99.90;;;;;;5033790;28;20041;-68
2023/07/27 05:37:22;;;;;;;6.13;2.38;;;14.30;99.90;;;;;;5039791;28;20056;-68
2023/07/27 05:39:47;;;;;;;4.85;2.22;;;14.30;99.90;;;;;;5041067;28;20106;-68
2023/07/27 05:42:13;;;;;;;4.32;2.30;;;14.40;99.90;;;;;;5022910;28;20037;-68
2023/07/27 05:44:39;;;;;;;6.22;1.85;;;14.40;99.90;;;;;;5041566;28;20041;-68
2023/07/27 05:47:07;;;;;;;5.05;2.15;;;14.40;99.90;;;;;;5039847;28;20406;-68
2023/07/27 05:49:33;;;;;;;5.68;2.60;;;14.40;99.90;;;;;;5041923;28;20380;-68
2023/07/27 05:51:59;;;;;;;4.72;1.58;;;14.40;99.90;;;;;;5041709;28;20136;-68
2023/07/27 05:54:25;;;;;;;6.35;2.08;;;14.40;99.90;;;;;;5033991;28;20037;-68
2023/07/27 05:56:51;;;;;;;4.00;1.70;;;14.50;99.90;;;;;;5069139;28;20162;-68
2023/07/27 05:59:17;;;;;;;5.55;2.10;;;14.50;99.90;;;;;;5036294;28;20457;-68
2023/07/27 06:01:42;;;;;;;5.18;1.77;;;14.50;99.90;;;;;;5033953;28;20040;-68
2023/07/27 06:04:08;;;;;;;4.93;2.13;;;14.60;99.90;;;;;;5037789;28;20031;-68
2023/07/27 06:06:34;;;;;;;5.10;2.28;;;14.50;99.90;;;;;;5035508;28;20495;-68
2023/07/27 06:09:00;;;;;;;4.00;1.65;;;14.50;99.90;;;;;;5033921;28;20040;-68
2023/07/27 06:11:26;;;;;;;5.32;2.50;;;14.60;99.90;;;;;;5035618;28;20029;-68
2023/07/27 06:13:52;;;;;;;4.20;1.77;;;14.60;99.90;;;;;;5033463;28;20044;-68
2023/07/27 06:16:17;;;;;;;3.72;1.98;;;14.60;99.90;;;;;;5041048;28;20153;-68
2023/07/27 06:18:43;;;;;;;5.18;2.40;;;14.60;99.90;;;;;;5039397;28;20055;-68
2023/07/27 06:21:08;;;;;;;5.55;2.05;;;14.60;99.90;;;;;;5042885;28;20078;-68
2023/07/27 06:23:34;;;;;;;7.05;2.60;;;14.60;99.90;;;;;;5037529;28;20425;-68
2023/07/27 06:25:59;;;;;;;6.13;2.67;;;14.70;99.90;;;;;;5021164;28;20045;-68
2023/07/27 06:28:25;;;;;;;5.82;2.08;;;14.70;99.90;;;;;;5038004;28;20136;-68
2023/07/27 06:30:51;;;;;;;4.68;2.53;;;14.70;99.90;;;;;;5038462;28;20174;-69
2023/07/27 06:33:17;;;;;;;4.82;2.45;;;14.70;99.90;;;;;;5040245;28;20032;-68
2023/07/27 06:35:43;;;;;;;7.28;2.50;;;14.70;99.90;;;;;;5040553;28;20033;-69
2023/07/27 06:38:08;;;;;;;7.57;2.60;;;14.70;99.90;;;;;;5040500;28;20044;-68
2023/07/27 06:40:34;;;;;;;4.65;2.30;;;14.70;99.90;;;;;;5042252;28;20064;-68
2023/07/27 06:43:00;;;;;;;7.55;2.70;;;14.70;99.90;;;;;;5038862;28;20059;-68
2023/07/27 06:45:25;;;;;;;8.40;3.22;;;14.70;99.90;;;;;;5040682;28;20072;-69
2023/07/27 06:47:51;;;;;;;5.32;2.47;;;14.80;99.90;;;;;;5022180;28;20051;-68
2023/07/27 06:50:17;;;;;;;4.22;2.40;;;14.80;99.90;;;;;;5069192;28;20076;-69
2023/07/27 06:52:42;;;;;;;4.13;2.10;;;14.80;99.90;;;;;;5040746;28;20048;-70
2023/07/27 06:55:08;;;;;;;6.05;2.53;;;14.80;99.90;;;;;;5037575;28;20045;-69
2023/07/27 06:57:34;;;;;;;4.82;2.42;;;14.80;99.90;;;;;;5035689;28;20064;-69
2023/07/27 07:00:00;;;;;;;5.97;2.63;;;14.90;99.90;;;;;;5040964;28;20072;-69
2023/07/27 07:02:26;;;;;;;4.88;2.30;;;14.90;99.90;;;;;;5043559;28;20068;-69
2023/07/27 07:04:51;;;;;;;5.22;2.55;;;14.90;99.90;;;;;;5038738;28;20032;-69
2023/07/27 07:07:17;;;;;;;4.35;2.10;;;14.90;99.90;;;;;;5018312;28;20868;-69
2023/07/27 07:09:43;;;;;;;5.82;2.90;;;14.90;99.90;;;;;;5034756;28;20124;-69
2023/07/27 07:12:08;;;;;;;5.10;2.45;;;14.90;99.90;;;;;;5041958;28;20043;-70
2023/07/27 07:14:34;;;;;;;5.90;2.50;;;14.90;99.90;;;;;;5040399;28;20045;-69
2023/07/27 07:17:01;;;;;;;4.45;2.38;;;15.00;99.90;;;;;;5035865;28;20080;-70
2023/07/27 07:19:26;;;;;;;4.10;2.15;;;15.00;99.90;;;;;;5042052;28;20064;-70
2023/07/27 07:21:52;;;;;;;5.28;2.10;;;15.00;99.90;;;;;;5041206;28;20443;-69
2023/07/27 07:24:18;;;;;;;4.22;2.15;;;15.00;99.90;;;;;;5039839;28;20040;-69
2023/07/27 07:26:45;;;;;;;6.97;2.40;;;15.00;99.90;;;;;;5040657;28;20048;-69
2023/07/27 07:29:11;;;;;;;4.75;2.45;;;15.10;99.90;;;;;;5040379;28;20052;-69
2023/07/27 07:31:37;;;;;;;5.00;2.05;;;15.10;99.90;;;;;;5039982;28;20507;-69
2023/07/27 07:34:03;;;;;;;5.50;2.22;;;15.10;99.90;;;;;;5036588;28;20030;-69
2023/07/27 07:36:29;;;;;;;4.18;2.22;;;15.10;99.90;;;;;;5051461;28;20048;-68
2023/07/27 07:38:54;;;;;;;4.43;1.85;;;15.10;99.90;;;;;;5037163;28;20029;-68
2023/07/27 07:41:20;;;;;;;4.60;2.25;;;15.20;99.90;;;;;;5029855;28;20040;-69
2023/07/27 07:43:45;;;;;;;5.20;2.45;;;15.20;99.90;;;;;;5049230;28;20106;-69
2023/07/27 07:46:12;;;;;;;4.90;2.15;;;15.20;99.90;;;;;;5029073;28;20080;-69
2023/07/27 07:48:38;;;;;;;4.82;2.42;;;15.20;99.90;;;;;;5050282;28;20056;-68
2023/07/27 07:51:13;;;;;;;3.67;2.25;;;15.30;99.90;;;;;;5050135;28;20450;-69
2023/07/27 07:53:39;;;;;;;4.43;1.98;;;15.30;99.90;;;;;;5042503;28;20510;-68
2023/07/27 07:56:11;;;;;;;3.95;2.70;;;15.30;99.90;;;;;;5048610;28;20049;-68
2023/07/27 07:58:37;;;;;;;3.65;2.03;;;15.30;99.90;;;;;;5033192;28;20029;-68
2023/07/27 08:01:03;;;;;;;4.30;2.10;;;15.30;99.90;;;;;;5049800;28;20124;-68
2023/07/27 08:03:28;;;;;;;4.35;2.00;;;15.30;99.90;;;;;;5045380;28;20329;-69
2023/07/27 08:05:54;;;;;;;4.22;2.20;;;15.40;99.90;;;;;;5050092;28;20037;-69
2023/07/27 08:08:20;;;;;;;4.32;2.15;;;15.40;99.90;;;;;;5047891;28;20041;-69
2023/07/27 08:10:45;;;;;;;3.20;1.80;;;15.30;99.90;;;;;;5047960;28;20438;-69
2023/07/27 08:13:11;;;;;;;5.15;2.03;;;15.40;99.90;;;;;;5047199;28;20029;-69
2023/07/27 08:15:36;;;;;;;4.10;1.98;;;15.40;99.90;;;;;;5048743;28;20072;-69
2023/07/27 08:18:02;;;;;;;4.15;2.22;;;15.30;99.90;;;;;;5049857;28;20431;-69
2023/07/27 08:20:27;;;;;;;4.43;2.30;;;15.40;99.90;;;;;;5049800;28;20049;-69
2023/07/27 08:22:53;;;;;;;4.22;1.98;;;15.40;99.90;;;;;;5047152;28;20041;-69
2023/07/27 08:25:18;;;;;;;6.82;2.42;;;15.40;99.90;;;;;;5045396;28;20052;-69
2023/07/27 08:27:44;;;;;;;3.97;2.15;;;15.40;99.90;;;;;;5047942;28;20071;-69
2023/07/27 08:30:11;;;;;;;4.55;2.38;;;15.40;99.90;;;;;;5048923;28;20084;-69
2023/07/27 08:32:37;;;;;;;3.55;2.00;;;15.40;99.90;;;;;;5045591;28;20041;-69
2023/07/27 08:35:03;;;;;;;4.57;2.28;;;15.50;99.90;;;;;;5031471;28;20102;-69
2023/07/27 08:37:28;;;;;;;5.20;2.28;;;15.40;99.90;;;;;;5046865;28;20116;-69
2023/07/27 08:39:54;;;;;;;3.63;2.25;;;15.50;99.90;;;;;;5048403;28;20118;-69
2023/07/27 08:42:21;;;;;;;6.32;2.67;;;15.50;99.90;;;;;;5045245;28;20041;-68
2023/07/27 08:44:47;;;;;;;4.32;2.35;;;15.50;99.90;;;;;;5047023;28;20094;-69
2023/07/27 08:47:14;;;;;;;3.35;2.20;;;15.60;99.90;;;;;;5042441;28;20594;-69
2023/07/27 08:49:41;;;;;;;4.38;2.15;;;15.60;99.90;;;;;;5045829;28;20120;-69
2023/07/27 08:52:07;;;;;;;3.45;2.00;;;15.60;99.90;;;;;;5049877;28;20033;-68
2023/07/27 08:54:33;;;;;;;4.05;2.20;;;15.60;99.90;;;;;;5045840;28;20041;-68
2023/07/27 08:56:58;;;;;;;3.30;2.00;;;15.60;99.90;;;;;;5048052;28;20387;-69
2023/07/27 08:59:24;;;;;;;4.43;2.30;;;15.60;99.90;;;;;;5038153;28;20073;-68
2023/07/27 09:01:50;;;;;;;3.15;2.13;;;15.60;99.90;;;;;;5046461;28;20036;-69
2023/07/27 09:04:16;;;;;;;4.28;2.10;;;15.60;99.90;;;;;;5045648;28;20095;-69
2023/07/27 09:06:44;;;;;;;3.60;2.10;;;15.60;99.90;;;;;;5040656;28;20036;-71
2023/07/27 09:09:15;;;;;;;3.83;2.45;;;15.70;99.90;;;;;;5042308;28;20038;-70
2023/07/27 09:11:42;;;;;;;2.65;1.65;;;15.70;99.90;;;;;;5047729;28;20040;-70
2023/07/27 09:14:07;;;;;;;3.47;2.13;;;15.70;99.90;;;;;;5042954;28;20923;-70
2023/07/27 09:16:34;;;;;;;4.75;2.28;;;15.80;99.90;;;;;;5067015;28;20048;-70
2023/07/27 09:19:00;;;;;;;3.30;2.15;;;15.80;99.90;;;;;;5043573;28;20033;-70
2023/07/27 09:21:27;;;;;;;3.67;1.88;;;15.80;99.90;;;;;;5074808;28;20043;-70
2023/07/27 09:23:56;;;;;;;3.22;1.70;;;15.80;99.90;;;;;;5036514;28;20029;-70
2023/07/27 09:26:25;;;;;;;3.00;1.73;;;15.80;99.90;;;;;;5027897;28;20544;-70
2023/07/27 09:28:53;;;;;;;3.65;2.28;;;15.90;99.90;;;;;;5044692;28;20040;-70
2023/07/27 09:31:18;;;;;;;3.83;2.30;;;15.90;99.90;;;;;;5039813;28;20287;-69
2023/07/27 09:33:44;;;;;;;4.53;2.28;;;16.00;99.90;;;;;;5042497;28;20185;-69
2023/07/27 09:36:10;;;;;;;3.67;2.03;;;16.00;99.90;;;;;;5045729;28;20260;-69
2023/07/27 09:38:36;;;;;;;3.25;2.20;;;16.00;99.90;;;;;;5036592;28;20474;-69
2023/07/27 09:41:08;;;;;;;3.38;2.03;;;16.00;99.90;;;;;;5045302;28;20047;-69
2023/07/27 09:43:40;;;;;;;3.75;2.33;;;16.00;99.90;;;;;;5045058;28;20388;-69
2023/07/27 09:46:06;;;;;;;3.95;2.38;;;16.00;99.90;;;;;;5041711;28;20042;-69
2023/07/27 09:48:32;;;;;;;4.47;2.03;;;16.00;99.90;;;;;;5043166;28;20048;-69
2023/07/27 09:50:59;;;;;;;3.83;2.22;;;16.00;99.90;;;;;;5040251;28;20124;-69
2023/07/27 09:53:29;;;;;;;3.60;2.33;;;16.00;99.90;;;;;;5039944;28;21404;-69
2023/07/27 09:55:57;;;;;;;3.63;2.15;;;16.10;99.90;;;;;;5043305;28;20037;-69
2023/07/27 09:58:23;;;;;;;4.20;2.22;;;16.10;99.90;;;;;;5026501;28;20724;-69
2023/07/27 10:00:48;;;;;;;3.65;2.10;;;16.10;99.90;;;;;;5040404;28;20279;-69
2023/07/27 10:03:14;;;;;;;3.63;2.08;;;16.10;99.90;;;;;;5045325;28;20114;-69
2023/07/27 10:05:41;;;;;;;4.30;2.58;;;16.10;99.90;;;;;;5043536;28;20483;-69
2023/07/27 10:08:08;;;;;;;3.13;1.90;;;16.20;99.90;;;;;;5039483;28;20540;-69
2023/07/27 10:10:33;;;;;;;3.20;1.95;;;16.20;99.90;;;;;;5043158;28;20041;-69
2023/07/27 10:13:07;;;;;;;3.35;1.85;;;16.20;99.90;;;;;;5042573;28;20099;-69
2023/07/27 10:15:40;;;;;;;3.80;2.08;;;16.20;99.90;;;;;;5040357;28;20044;-69
2023/07/27 10:18:05;;;;;;;2.50;1.77;;;16.20;99.90;;;;;;5039338;28;20043;-69
2023/07/27 10:20:33;;;;;;;4.60;1.98;;;16.20;99.90;;;;;;5039386;28;20124;-70
2023/07/27 10:23:26;;;;;;;3.70;2.00;;;16.20;99.90;;;;;;5041140;28;20837;-70
2023/07/27 10:25:55;;;;;;;3.90;2.15;;;16.20;99.90;;;;;;5025434;28;20060;-70
2023/07/27 10:28:43;;;;;;;2.97;1.67;;;16.20;99.90;;;;;;5038492;28;20037;-69
2023/07/27 10:31:22;;;;;;;2.65;1.63;;;16.30;99.90;;;;;;5044737;28;20048;-69
2023/07/27 10:33:57;;;;;;;2.53;1.65;;;16.30;99.90;;;;;;5040133;28;20044;-69
2023/07/27 10:36:23;;;;;;;2.88;1.98;;;16.30;99.90;;;;;;5044718;28;20512;-69
2023/07/27 10:38:56;;;;;;;2.80;1.80;;;16.30;99.90;;;;;;5039467;28;20075;-69
2023/07/27 10:41:25;;;;;;;2.55;1.50;;;16.30;99.90;;;;;;5046178;28;20029;-69
2023/07/27 10:44:06;;;;;;;3.97;1.98;;;16.30;99.90;;;;;;5045143;28;20040;-69
2023/07/27 10:46:32;;;;;;;3.53;1.80;;;16.40;99.90;;;;;;5046391;28;20095;-69
2023/07/27 10:49:07;;;;;;;2.67;1.60;;;16.40;99.90;;;;;;5046309;28;20048;-69
2023/07/27 10:51:33;;;;;;;3.72;1.42;;;16.40;99.90;;;;;;5048134;28;20025;-69
2023/07/27 10:53:59;;;;;;;2.95;1.63;;;16.50;99.90;;;;;;5037375;28;20035;-69
2023/07/27 10:56:25;;;;;;;2.80;1.60;;;16.40;99.90;;;;;;5041498;28;20850;-69
2023/07/27 10:58:56;;;;;;;2.83;1.50;;;16.40;99.90;;;;;;5072283;28;20394;-69
2023/07/27 11:01:22;;;;;;;3.03;1.73;;;16.50;99.90;;;;;;5044372;28;20037;-69
2023/07/27 11:03:51;;;;;;;5.13;2.13;;;16.50;99.90;;;;;;5043606;28;20091;-69
2023/07/27 11:06:17;;;;;;;2.92;1.58;;;16.50;99.90;;;;;;5043203;28;20041;-69
2023/07/27 11:08:43;;;;;;;4.70;1.88;;;16.50;99.90;;;;;;5041974;28;20037;-69
2023/07/27 11:11:20;;;;;;;3.17;1.92;;;16.60;99.90;;;;;;5025446;28;20645;-69
2023/07/27 11:13:46;;;;;;;3.00;1.90;;;16.60;99.90;;;;;;5048590;28;20045;-69
2023/07/27 11:16:13;;;;;;;4.57;2.13;;;16.60;99.90;;;;;;5042702;28;20076;-69
2023/07/27 11:18:40;;;;;;;3.00;1.80;;;16.70;99.90;;;;;;5043896;28;20052;-69
2023/07/27 11:21:11;;;;;;;3.35;1.88;;;16.80;99.90;;;;;;5078425;28;20399;-69
2023/07/27 11:23:47;;;;;;;4.32;1.85;;;16.80;99.90;;;;;;5047602;28;20505;-69
2023/07/27 11:26:14;;;;;;;4.50;2.03;;;16.80;99.90;;;;;;5027662;28;20357;-69
2023/07/27 11:28:40;;;;;;;4.07;1.60;;;16.90;99.90;;;;;;5044227;28;20380;-69
2023/07/27 11:31:07;;;;;;;3.78;1.85;;;16.90;99.90;;;;;;5043597;28;20129;-69
2023/07/27 11:33:36;;;;;;;3.35;1.98;;;16.90;99.90;;;;;;5043595;28;20052;-69
2023/07/27 11:36:04;;;;;;;3.55;1.95;;;16.90;99.90;;;;;;5047311;28;20120;-69
2023/07/27 11:38:30;;;;;;;3.75;1.83;;;17.00;99.90;;;;;;5044211;28;20495;-70
2023/07/27 11:40:57;;;;;;;3.70;1.80;;;17.10;99.90;;;;;;5045791;28;20497;-69
2023/07/27 11:43:24;;;;;;;4.63;1.90;;;17.10;99.90;;;;;;5043530;28;20131;-69
2023/07/27 11:45:57;;;;;;;3.42;1.67;;;17.10;99.90;;;;;;5051729;28;20041;-69
2023/07/27 11:48:29;;;;;;;3.50;1.52;;;17.10;99.90;;;;;;5046185;28;20033;-69
2023/07/27 11:50:57;;;;;;;2.70;1.45;;;17.10;99.90;;;;;;5046714;28;20048;-69
2023/07/27 11:53:25;;;;;;;2.90;1.35;;;17.20;99.90;;;;;;5038685;28;20052;-69
2023/07/27 11:55:51;;;;;;;3.70;1.83;;;17.20;99.90;;;;;;5040162;28;20368;-69
2023/07/27 11:58:17;;;;;;;3.35;1.40;;;17.20;99.90;;;;;;5044468;28;20031;-69
2023/07/27 12:00:50;;;;;;;4.40;2.00;;;17.20;99.90;;;;;;5041492;28;20402;-69
2023/07/27 12:03:19;;;;;;;3.47;1.85;;;17.30;99.90;;;;;;5040866;28;20037;-69
2023/07/27 12:05:45;;;;;;;3.60;1.80;;;17.30;99.90;;;;;;5040340;28;20533;-69
2023/07/27 12:08:11;;;;;;;2.88;1.65;;;17.30;99.90;;;;;;5037649;28;20281;-69
2023/07/27 12:10:36;;;;;;;3.63;1.73;;;17.30;99.90;;;;;;5037617;28;20073;-69
2023/07/27 12:13:05;;;;;;;3.10;1.80;;;17.30;99.90;;;;;;5073455;28;20075;-69
2023/07/27 12:15:35;;;;;;;4.20;1.65;;;17.30;99.90;;;;;;5041879;28;20099;-69
2023/07/27 12:18:04;;;;;;;3.30;1.70;;;17.30;99.90;;;;;;5046681;28;20515;-69
2023/07/27 12:20:33;;;;;;;2.65;1.55;;;17.30;99.90;;;;;;5044555;28;20091;-69
2023/07/27 12:22:58;;;;;;;3.72;1.67;;;17.30;99.90;;;;;;5038956;28;20139;-69
2023/07/27 12:25:28;;;;;;;3.33;1.70;;;17.30;99.90;;;;;;5041320;28;20140;-69
2023/07/27 12:27:54;;;;;;;4.03;1.98;;;17.30;99.90;;;;;;5059098;28;20482;-69
2023/07/27 12:30:20;;;;;;;3.90;1.60;;;17.30;99.90;;;;;;5042600;28;20045;-69
2023/07/27 12:32:47;;;;;;;3.53;1.65;;;17.30;99.90;;;;;;5034227;28;20093;-69
2023/07/27 12:35:12;;;;;;;3.80;1.70;;;17.30;99.90;;;;;;5042999;28;20049;-70
2023/07/27 12:37:39;;;;;;;4.53;2.10;;;17.30;99.90;;;;;;5043506;28;20514;-69
2023/07/27 12:40:06;;;;;;;3.60;1.65;;;17.30;99.90;;;;;;5040829;28;20037;-69
2023/07/27 12:42:31;;;;;;;3.33;1.60;;;17.30;99.90;;;;;;5042813;28;20272;-69
2023/07/27 12:44:57;;;;;;;3.88;1.90;;;17.30;99.90;;;;;;5066814;28;20041;-69
2023/07/27 12:47:23;;;;;;;3.55;1.80;;;17.30;99.90;;;;;;5072064;28;20044;-70